createdAt,value
2018-04-14T00:01:05.075Z,79.74
2018-04-14T00:03:33.807Z,79.48
2018-04-14T00:06:02.171Z,79.24
2018-04-14T00:08:30.477Z,79.30
2018-04-14T00:10:58.835Z,79.22
2018-04-14T00:13:27.155Z,79.26
2018-04-14T00:15:56.282Z,79.16
2018-04-14T00:18:25.389Z,78.78
2018-04-14T00:20:53.767Z,78.93
2018-04-14T00:23:22.115Z,78.84
2018-04-14T00:25:50.468Z,78.91
2018-04-14T00:28:19.590Z,79.35
2018-04-14T00:30:47.914Z,79.87
2018-04-14T00:33:16.240Z,80.62
2018-04-14T00:35:44.984Z,80.51
2018-04-14T00:38:13.322Z,80.50
2018-04-14T00:40:41.675Z,79.98
2018-04-14T00:43:09.986Z,80.06
2018-04-14T00:45:38.346Z,80.27
2018-04-14T00:48:06.669Z,80.43
2018-04-14T00:50:35.020Z,80.58
2018-04-14T00:53:21.225Z,81.07
2018-04-14T00:55:49.974Z,81.26
2018-04-14T00:58:18.718Z,81.71
2018-04-14T01:00:47.097Z,82.18
2018-04-14T01:03:16.352Z,82.13
2018-04-14T01:05:44.682Z,82.29
2018-04-14T01:08:13.808Z,82.23
2018-04-14T01:10:42.186Z,82.17
2018-04-14T01:13:10.545Z,82.27
2018-04-14T01:15:39.641Z,82.19
2018-04-14T01:18:07.959Z,81.99
2018-04-14T01:20:36.322Z,82.18
2018-04-14T01:23:05.099Z,82.31
2018-04-14T01:25:33.455Z,82.38
2018-04-14T01:28:02.561Z,82.38
2018-04-14T01:30:31.707Z,82.38
2018-04-14T01:33:00.067Z,82.46
2018-04-14T01:35:28.444Z,82.62
2018-04-14T01:37:56.796Z,82.60
2018-04-14T01:40:25.891Z,82.94
2018-04-14T01:42:55.014Z,83.13
2018-04-14T01:45:23.438Z,83.14
2018-04-14T01:47:51.822Z,83.40
2018-04-14T01:50:20.194Z,83.93
2018-04-14T01:52:48.558Z,83.88
2018-04-14T01:55:16.902Z,84.60
2018-04-14T01:57:45.250Z,84.57
2018-04-14T02:00:14.378Z,84.81
2018-04-14T02:02:42.706Z,84.63
2018-04-14T02:05:11.083Z,84.57
2018-04-14T02:07:40.210Z,84.68
2018-04-14T02:10:08.577Z,84.94
2018-04-14T02:12:37.675Z,84.82
2018-04-14T02:15:06.797Z,84.75
2018-04-14T02:17:35.525Z,85.06
2018-04-14T02:20:03.886Z,84.90
2018-04-14T02:22:32.239Z,84.98
2018-04-14T02:25:00.574Z,84.85
2018-04-14T02:27:29.702Z,85.05
2018-04-14T02:29:58.020Z,85.35
2018-04-14T02:32:26.386Z,85.33
2018-04-14T02:34:54.717Z,85.44
2018-04-14T02:37:23.097Z,85.48
2018-04-14T02:39:52.221Z,85.65
2018-04-14T02:42:21.306Z,85.68
2018-04-14T02:44:49.638Z,85.97
2018-04-14T02:47:18.009Z,86.09
2018-04-14T02:49:46.354Z,86.00
2018-04-14T02:52:14.715Z,86.34
2018-04-14T02:54:43.045Z,86.61
2018-04-14T02:57:12.172Z,86.72
2018-04-14T02:59:40.499Z,86.65
2018-04-14T03:02:08.851Z,86.84
2018-04-14T03:04:37.191Z,87.01
2018-04-14T03:07:05.936Z,87.14
2018-04-14T03:09:34.258Z,87.05
2018-04-14T03:12:03.340Z,86.91
2018-04-14T03:14:31.687Z,87.07
2018-04-14T03:17:00.026Z,87.14
2018-04-14T03:19:28.409Z,87.21
2018-04-14T03:21:56.749Z,87.12
2018-04-14T03:24:25.123Z,87.01
2018-04-14T03:26:53.448Z,86.83
2018-04-14T03:29:21.813Z,86.87
2018-04-14T03:31:50.209Z,86.83
2018-04-14T03:34:18.565Z,86.63
2018-04-14T03:36:46.895Z,86.44
2018-04-14T03:39:15.252Z,86.29
2018-04-14T03:41:43.590Z,86.08
2018-04-14T03:44:12.684Z,85.94
2018-04-14T03:46:41.822Z,85.92
2018-04-14T03:49:10.145Z,85.71
2018-04-14T03:51:39.457Z,85.65
2018-04-14T03:54:08.084Z,85.90
2018-04-14T03:56:37.213Z,85.87
2018-04-14T03:59:05.571Z,86.11
2018-04-14T04:01:33.953Z,86.09
2018-04-14T04:04:02.282Z,85.86
2018-04-14T04:06:30.622Z,85.27
2018-04-14T04:08:58.991Z,85.04
2018-04-14T04:11:27.311Z,84.78
2018-04-14T04:17:02.861Z,84.70
2018-04-14T04:20:11.024Z,84.58
2018-04-14T04:22:57.003Z,84.39
2018-04-14T04:25:37.069Z,84.35
2018-04-14T04:28:05.441Z,84.29
2018-04-14T04:30:37.856Z,84.18
2018-04-14T04:33:06.355Z,84.22
2018-04-14T04:38:40.292Z,84.30
2018-04-14T04:41:12.844Z,84.20
2018-04-14T04:43:55.069Z,84.29
2018-04-14T04:46:23.453Z,84.60
2018-04-14T04:48:51.795Z,84.72
2018-04-14T04:51:20.137Z,85.43
2018-04-14T04:56:49.337Z,86.23
2018-04-14T04:59:19.450Z,86.69
2018-04-14T05:01:47.839Z,86.96
2018-04-14T05:04:16.224Z,86.98
2018-04-14T05:06:44.547Z,87.25
2018-04-14T05:09:12.899Z,87.40
2018-04-14T05:11:41.267Z,87.28
2018-04-14T05:14:09.645Z,87.07
2018-04-14T05:16:37.980Z,87.30
2018-04-14T05:19:07.113Z,87.13
2018-04-14T05:25:00.409Z,86.77
2018-04-14T05:27:28.757Z,86.70
2018-04-14T05:29:57.111Z,86.77
2018-04-14T05:32:25.833Z,86.68
2018-04-14T05:34:54.193Z,86.28
2018-04-14T05:37:22.517Z,86.02
2018-04-14T05:39:50.916Z,85.74
2018-04-14T05:42:20.044Z,85.33
2018-04-14T05:44:48.411Z,85.26
2018-04-14T05:47:16.721Z,84.95
2018-04-14T05:49:45.043Z,84.74
2018-04-14T05:52:14.181Z,84.59
2018-04-14T05:54:42.503Z,84.25
2018-04-14T05:57:10.838Z,83.91
2018-04-14T05:59:39.338Z,83.76
2018-04-14T06:02:07.688Z,83.56
2018-04-14T06:04:36.276Z,82.40
2018-04-14T06:07:04.620Z,81.15
2018-04-14T06:09:33.700Z,80.59
2018-04-14T06:12:02.108Z,81.61
2018-04-14T06:14:30.455Z,82.39
2018-04-14T06:16:58.824Z,82.09
2018-04-14T06:19:27.133Z,81.78
2018-04-14T06:21:57.161Z,80.36
2018-04-14T06:24:25.647Z,80.10
2018-04-14T06:26:54.736Z,80.01
2018-04-14T06:29:23.212Z,79.25
2018-04-14T06:31:51.542Z,78.34
2018-04-14T06:34:19.903Z,78.95
2018-04-14T06:36:48.259Z,80.36
2018-04-14T06:39:16.628Z,80.90
2018-04-14T06:41:45.077Z,79.91
2018-04-14T06:44:14.206Z,79.46
2018-04-14T06:46:42.587Z,78.54
2018-04-14T06:49:11.365Z,78.06
2018-04-14T06:51:39.746Z,77.97
2018-04-14T06:54:08.114Z,78.31
2018-04-14T06:56:37.246Z,79.05
2018-04-14T06:59:05.559Z,79.38
2018-04-14T07:01:33.922Z,79.36
2018-04-14T07:04:02.242Z,78.42
2018-04-14T07:06:31.452Z,77.66
2018-04-14T07:08:59.775Z,76.61
2018-04-14T07:11:28.120Z,75.60
2018-04-14T07:13:56.481Z,74.52
2018-04-14T07:16:24.796Z,73.29
2018-04-14T07:18:53.155Z,71.62
2018-04-14T07:21:21.472Z,69.87
2018-04-14T07:23:51.363Z,68.33
2018-04-14T07:26:19.693Z,67.94
2018-04-14T07:28:48.855Z,67.39
2018-04-14T07:31:17.184Z,66.73
2018-04-14T07:33:45.523Z,66.55
2018-04-14T07:36:14.077Z,67.06
2018-04-14T07:38:42.403Z,66.73
2018-04-14T07:41:11.919Z,67.65
2018-04-14T07:43:40.226Z,68.66
2018-04-14T07:46:08.639Z,67.89
2018-04-14T07:48:36.987Z,67.07
2018-04-14T07:51:05.409Z,66.55
2018-04-14T07:53:34.515Z,65.04
2018-04-14T07:56:04.023Z,63.72
2018-04-14T07:58:33.103Z,61.76
2018-04-14T08:01:02.611Z,61.53
2018-04-14T08:03:32.330Z,61.54
2018-04-14T08:06:01.418Z,61.03
2018-04-14T08:08:31.293Z,60.63
2018-04-14T08:11:00.583Z,59.97
2018-04-14T08:13:28.940Z,59.19
2018-04-14T08:15:57.340Z,59.29
2018-04-14T08:18:25.749Z,59.20
2018-04-14T08:20:54.103Z,60.15
2018-04-14T08:23:22.456Z,61.66
2018-04-14T08:25:50.821Z,62.08
2018-04-14T08:28:19.171Z,62.25
2018-04-14T08:30:48.283Z,61.28
2018-04-14T08:33:16.649Z,62.58
2018-04-14T08:35:45.742Z,62.63
2018-04-14T08:38:14.880Z,63.10
2018-04-14T08:40:43.258Z,61.93
2018-04-14T08:43:11.625Z,60.86
2018-04-14T08:45:39.960Z,60.40
2018-04-14T08:48:08.280Z,60.04
2018-04-14T08:50:36.660Z,59.31
2018-04-14T08:53:05.002Z,59.48
2018-04-14T08:55:34.093Z,59.72
2018-04-14T08:58:03.199Z,60.42
2018-04-14T09:00:32.297Z,58.97
2018-04-14T09:03:00.688Z,58.47
2018-04-14T09:05:29.037Z,57.57
2018-04-14T09:07:58.146Z,56.85
2018-04-14T09:10:26.495Z,57.67
2018-04-14T09:12:54.826Z,56.95
2018-04-14T09:15:23.211Z,56.22
2018-04-14T09:17:51.547Z,55.79
2018-04-14T09:20:21.043Z,54.95
2018-04-14T09:22:49.400Z,55.66
2018-04-14T09:25:17.774Z,56.50
2018-04-14T09:27:46.091Z,55.25
2018-04-14T09:30:15.243Z,55.38
2018-04-14T09:32:43.590Z,55.16
2018-04-14T09:35:11.969Z,55.93
2018-04-14T09:37:40.308Z,55.71
2018-04-14T09:40:09.452Z,55.94
2018-04-14T09:42:37.784Z,54.36
2018-04-14T09:45:06.899Z,54.86
2018-04-14T09:47:36.007Z,54.25
2018-04-14T09:50:04.355Z,53.19
2018-04-14T09:52:33.767Z,52.89
2018-04-14T09:55:02.858Z,52.81
2018-04-14T09:57:31.991Z,52.56
2018-04-14T10:00:00.312Z,52.48
2018-04-14T10:02:46.298Z,52.09
2018-04-14T10:05:14.670Z,51.84
2018-04-14T10:07:43.007Z,52.83
2018-04-14T10:10:11.405Z,51.66
2018-04-14T10:12:39.742Z,50.53
2018-04-14T10:15:08.085Z,51.30
2018-04-14T10:17:36.461Z,51.88
2018-04-14T10:20:04.819Z,51.27
2018-04-14T10:22:33.178Z,50.07
2018-04-14T10:25:01.559Z,48.52
2018-04-14T10:27:29.947Z,48.45
2018-04-14T10:29:58.268Z,48.23
2018-04-14T10:32:26.621Z,48.26
2018-04-14T10:34:54.989Z,48.26
2018-04-14T10:37:23.409Z,46.99
2018-04-14T10:39:52.495Z,45.11
2018-04-14T10:42:20.864Z,44.11
2018-04-14T10:44:49.246Z,42.31
2018-04-14T10:47:18.349Z,43.15
2018-04-14T10:49:47.533Z,44.00
2018-04-14T10:52:15.911Z,45.08
2018-04-14T10:54:44.330Z,45.13
2018-04-14T10:57:12.707Z,44.90
2018-04-14T10:59:41.111Z,45.22
2018-04-14T11:02:09.472Z,45.42
2018-04-14T11:04:37.861Z,46.43
2018-04-14T11:07:06.241Z,46.74
2018-04-14T11:09:34.571Z,47.22
2018-04-14T11:12:02.924Z,46.03
2018-04-14T11:14:31.303Z,45.43
2018-04-14T11:16:59.739Z,46.31
2018-04-14T11:19:29.260Z,46.27
2018-04-14T11:21:57.622Z,46.70
2018-04-14T11:24:26.757Z,46.28
2018-04-14T11:26:55.209Z,46.26
2018-04-14T11:29:23.534Z,45.45
2018-04-14T11:31:51.872Z,45.52
2018-04-14T11:34:20.293Z,45.47
2018-04-14T11:36:48.670Z,45.36
2018-04-14T11:39:30.522Z,45.30
2018-04-14T11:41:58.890Z,43.69
2018-04-14T11:44:28.534Z,44.63
2018-04-14T11:46:56.894Z,44.26
2018-04-14T11:49:25.229Z,45.48
2018-04-14T11:51:53.885Z,44.93
2018-04-14T11:54:27.567Z,43.66
2018-04-14T11:57:00.096Z,43.65
2018-04-14T11:59:31.798Z,43.17
2018-04-14T12:02:00.182Z,43.67
2018-04-14T12:04:28.542Z,43.27
2018-04-14T12:06:57.720Z,44.40
2018-04-14T12:09:26.065Z,42.89
2018-04-14T12:11:55.209Z,42.86
2018-04-14T12:14:23.651Z,42.01
2018-04-14T12:16:52.478Z,42.22
2018-04-14T12:19:21.750Z,42.85
2018-04-14T12:21:50.291Z,42.80
2018-04-14T12:24:18.766Z,42.41
2018-04-14T12:26:47.401Z,41.90
2018-04-14T12:29:15.883Z,40.45
2018-04-14T12:31:44.361Z,40.97
2018-04-14T12:34:12.716Z,41.66
2018-04-14T12:36:41.825Z,41.61
2018-04-14T12:39:10.979Z,42.02
2018-04-14T12:41:39.300Z,41.83
2018-04-14T12:44:07.862Z,41.25
2018-04-14T12:46:36.224Z,39.86
2018-04-14T12:49:04.756Z,39.53
2018-04-14T12:51:33.722Z,38.60
2018-04-14T12:54:02.809Z,38.23
2018-04-14T12:56:32.031Z,37.76
2018-04-14T12:59:00.538Z,37.90
2018-04-14T13:01:28.901Z,38.74
2018-04-14T13:03:58.261Z,38.60
2018-04-14T13:06:26.630Z,39.10
2018-04-14T13:08:54.956Z,38.91
2018-04-14T13:11:23.533Z,38.98
2018-04-14T13:13:51.889Z,39.58
2018-04-14T13:16:21.057Z,38.33
2018-04-14T13:18:49.414Z,36.71
2018-04-14T13:21:17.837Z,36.62
2018-04-14T13:23:47.209Z,37.10
2018-04-14T13:26:16.344Z,37.29
2018-04-14T13:28:45.452Z,36.63
2018-04-14T13:31:13.829Z,36.47
2018-04-14T13:33:42.147Z,35.31
2018-04-14T13:36:10.665Z,35.79
2018-04-14T13:38:39.275Z,36.33
2018-04-14T13:41:07.935Z,36.54
2018-04-14T13:43:38.701Z,36.94
2018-04-14T13:46:07.063Z,36.89
2018-04-14T13:48:36.164Z,37.33
2018-04-14T13:51:04.545Z,37.14
2018-04-14T13:53:33.629Z,34.02
2018-04-14T13:56:03.444Z,34.98
2018-04-14T13:58:31.766Z,35.34
2018-04-14T14:01:00.164Z,35.26
2018-04-14T14:03:29.234Z,35.76
2018-04-14T14:05:57.558Z,34.33
2018-04-14T14:08:26.679Z,34.66
2018-04-14T14:10:55.021Z,35.13
2018-04-14T14:13:23.376Z,35.79
2018-04-14T14:15:53.264Z,35.54
2018-04-14T14:18:21.576Z,34.60
2018-04-14T14:20:49.940Z,35.22
2018-04-14T14:23:18.320Z,35.89
2018-04-14T14:25:46.652Z,36.96
2018-04-14T14:28:14.976Z,38.12
2018-04-14T14:30:43.339Z,37.66
2018-04-14T14:33:11.663Z,37.48
2018-04-14T14:35:40.746Z,37.41
2018-04-14T14:38:09.911Z,37.02
2018-04-14T14:40:38.291Z,36.82
2018-04-14T14:43:06.831Z,37.01
2018-04-14T14:45:35.353Z,35.94
2018-04-14T14:48:03.728Z,35.28
2018-04-14T14:50:32.102Z,34.85
2018-04-14T14:53:00.432Z,34.09
2018-04-14T14:55:29.570Z,33.79
2018-04-14T14:57:57.944Z,32.96
2018-04-14T15:00:26.342Z,33.14
2018-04-14T15:02:54.698Z,33.57
2018-04-14T15:05:23.136Z,33.46
2018-04-14T15:07:52.288Z,33.91
2018-04-14T15:10:20.642Z,34.61
2018-04-14T15:12:48.963Z,35.17
2018-04-14T15:15:17.419Z,35.03
2018-04-14T15:17:45.780Z,35.79
2018-04-14T15:20:14.147Z,34.88
2018-04-14T15:22:42.527Z,34.37
2018-04-14T15:25:10.847Z,34.75
2018-04-14T15:27:39.257Z,35.50
2018-04-14T15:30:08.368Z,34.99
2018-04-14T15:32:36.842Z,35.66
2018-04-14T15:35:05.979Z,35.55
2018-04-14T15:37:34.354Z,36.08
2018-04-14T15:40:02.712Z,35.78
2018-04-14T15:42:31.073Z,36.73
2018-04-14T15:45:00.192Z,36.38
2018-04-14T15:47:28.540Z,36.23
2018-04-14T15:49:57.733Z,35.88
2018-04-14T15:52:27.093Z,36.42
2018-04-14T15:54:55.459Z,36.61
2018-04-14T15:57:23.829Z,36.96
2018-04-14T15:59:52.235Z,37.20
2018-04-14T16:02:20.612Z,37.33
2018-04-14T16:04:49.393Z,37.61
2018-04-14T16:07:17.796Z,38.21
2018-04-14T16:09:46.156Z,38.29
2018-04-14T16:12:14.493Z,38.98
2018-04-14T16:14:42.815Z,39.11
2018-04-14T16:17:11.201Z,39.39
2018-04-14T16:19:39.533Z,39.66
2018-04-14T16:22:07.888Z,39.49
2018-04-14T16:24:37.817Z,39.51
2018-04-14T16:27:06.186Z,40.24
2018-04-14T16:29:36.002Z,40.94
2018-04-14T16:32:05.124Z,40.63
2018-04-14T16:34:33.467Z,41.15
2018-04-14T16:37:02.568Z,41.55
2018-04-14T16:39:31.811Z,41.93
2018-04-14T16:42:00.151Z,42.23
2018-04-14T16:44:28.485Z,41.82
2018-04-14T16:46:56.870Z,41.45
2018-04-14T16:49:25.289Z,41.91
2018-04-14T16:51:53.659Z,42.30
2018-04-14T16:54:22.026Z,43.04
2018-04-14T16:56:51.145Z,43.27
2018-04-14T16:59:19.502Z,43.53
2018-04-14T17:01:49.119Z,43.34
2018-04-14T17:04:17.549Z,43.59
2018-04-14T17:06:47.069Z,43.22
2018-04-14T17:09:15.423Z,43.64
2018-04-14T17:11:43.722Z,43.79
2018-04-14T17:14:12.501Z,44.04
2018-04-14T17:16:40.863Z,44.11
2018-04-14T17:19:09.273Z,44.24
2018-04-14T17:21:37.646Z,44.35
2018-04-14T17:24:07.614Z,44.95
2018-04-14T17:26:37.501Z,45.53
2018-04-14T17:29:09.865Z,46.27
2018-04-14T17:31:39.128Z,46.49
2018-04-14T17:34:07.604Z,46.50
2018-04-14T17:36:37.709Z,46.75
2018-04-14T17:39:06.994Z,46.86
2018-04-14T17:41:35.410Z,46.82
2018-04-14T17:44:03.908Z,47.04
2018-04-14T17:46:32.719Z,47.36
2018-04-14T17:49:01.167Z,47.70
2018-04-14T17:51:30.415Z,48.11
2018-04-14T17:53:59.552Z,48.47
2018-04-14T17:56:27.912Z,48.96
2018-04-14T17:58:57.834Z,49.43
2018-04-14T18:01:26.371Z,50.17
2018-04-14T18:03:54.884Z,50.85
2018-04-14T18:06:23.850Z,51.31
2018-04-14T18:08:52.222Z,51.40
2018-04-14T18:11:21.503Z,51.04
2018-04-14T18:13:50.275Z,51.21
2018-04-14T18:16:18.645Z,51.61
2018-04-14T18:18:48.103Z,51.69
2018-04-14T18:21:18.762Z,51.96
2018-04-14T18:23:47.148Z,52.62
2018-04-14T18:26:15.575Z,52.78
2018-04-14T18:28:44.666Z,53.42
2018-04-14T18:31:14.754Z,53.08
2018-04-14T18:33:43.114Z,53.04
2018-04-14T18:36:11.514Z,53.36
2018-04-14T18:38:39.847Z,54.11
2018-04-14T18:41:08.225Z,54.25
2018-04-14T18:43:36.620Z,54.16
2018-04-14T18:46:05.062Z,53.93
2018-04-14T18:48:33.747Z,54.13
2018-04-14T18:51:02.970Z,53.89
2018-04-14T18:53:31.851Z,54.24
2018-04-14T18:56:00.952Z,54.52
2018-04-14T18:58:29.736Z,54.43
2018-04-14T19:01:11.784Z,54.71
2018-04-14T19:03:40.174Z,54.42
2018-04-14T19:06:09.441Z,54.28
2018-04-14T19:08:38.197Z,54.90
2018-04-14T19:11:07.309Z,54.75
2018-04-14T19:13:37.278Z,55.08
2018-04-14T19:16:06.441Z,55.29
2018-04-14T19:18:35.852Z,55.78
2018-04-14T19:21:05.200Z,56.60
2018-04-14T19:23:33.925Z,57.04
2018-04-14T19:26:03.058Z,57.08
2018-04-14T19:28:32.180Z,56.82
2018-04-14T19:31:00.562Z,57.45
2018-04-14T19:33:29.290Z,57.97
2018-04-14T19:35:57.600Z,58.01
2018-04-14T19:38:27.550Z,57.51
2018-04-14T19:40:55.906Z,57.39
2018-04-14T19:43:25.782Z,57.65
2018-04-14T19:45:54.520Z,57.66
2018-04-14T19:48:23.665Z,57.58
2018-04-14T19:50:52.017Z,57.59
2018-04-14T19:53:20.372Z,57.48
2018-04-14T19:55:48.713Z,57.38
2018-04-14T19:58:17.874Z,57.31
2018-04-14T20:00:46.185Z,57.85
2018-04-14T20:03:14.555Z,57.45
2018-04-14T20:05:42.935Z,57.26
2018-04-14T20:08:11.308Z,56.83
2018-04-14T20:10:39.714Z,56.42
2018-04-14T20:13:08.862Z,56.12
2018-04-14T20:15:37.180Z,56.24
2018-04-14T20:18:05.976Z,56.04
2018-04-14T20:20:34.330Z,55.94
2018-04-14T20:23:02.702Z,55.81
2018-04-14T20:25:31.041Z,55.75
2018-04-14T20:27:59.413Z,55.86
2018-04-14T20:30:27.746Z,55.88
2018-04-14T20:32:56.094Z,55.97
2018-04-14T20:35:24.877Z,56.02
2018-04-14T20:37:53.226Z,55.83
2018-04-14T20:40:21.573Z,56.03
2018-04-14T20:42:50.693Z,56.36
2018-04-14T20:45:19.409Z,56.91
2018-04-14T20:47:47.801Z,57.30
2018-04-14T20:50:16.135Z,57.79
2018-04-14T20:52:45.847Z,58.00
2018-04-14T20:55:14.276Z,58.29
2018-04-14T20:57:42.661Z,58.37
2018-04-14T21:00:11.047Z,58.62
2018-04-14T21:02:40.931Z,59.55
2018-04-14T21:05:10.143Z,59.35
2018-04-14T21:07:38.724Z,59.24
2018-04-14T21:10:07.089Z,59.73
2018-04-14T21:12:35.440Z,60.02
2018-04-14T21:15:03.854Z,60.21
2018-04-14T21:17:32.195Z,60.83
2018-04-14T21:20:00.680Z,60.56
2018-04-14T21:22:29.047Z,61.86
2018-04-14T21:24:57.427Z,62.56
2018-04-14T21:27:26.184Z,62.33
2018-04-14T21:29:55.289Z,62.36
2018-04-14T21:32:25.171Z,62.43
2018-04-14T21:34:54.308Z,62.68
2018-04-14T21:37:23.523Z,62.69
2018-04-14T21:39:52.095Z,63.11
2018-04-14T21:42:20.500Z,62.85
2018-04-14T21:44:48.936Z,63.15
2018-04-14T21:47:18.045Z,62.98
2018-04-14T21:49:46.432Z,64.10
2018-04-14T21:52:14.761Z,64.07
2018-04-14T21:54:43.139Z,64.17
2018-04-14T21:57:11.497Z,64.12
2018-04-14T21:59:39.868Z,64.40
2018-04-14T22:02:08.188Z,64.34
2018-04-14T22:04:36.534Z,64.11
2018-04-14T22:07:04.848Z,64.05
2018-04-14T22:09:33.972Z,64.06
2018-04-14T22:12:02.340Z,64.04
2018-04-14T22:14:33.841Z,64.28
2018-04-14T22:17:02.213Z,64.64
2018-04-14T22:19:30.548Z,64.31
2018-04-14T22:21:58.901Z,64.25
2018-04-14T22:24:27.249Z,64.07
2018-04-14T22:26:55.660Z,64.12
2018-04-14T22:29:23.999Z,64.38
2018-04-14T22:31:52.357Z,65.50
2018-04-14T22:34:20.688Z,65.37
2018-04-14T22:36:49.068Z,65.25
2018-04-14T22:39:17.397Z,65.05
2018-04-14T22:41:45.722Z,65.75
2018-04-14T22:44:14.865Z,65.31
2018-04-14T22:46:43.195Z,65.52
2018-04-14T22:49:11.508Z,65.73
2018-04-14T22:51:39.921Z,65.73
2018-04-14T22:54:08.293Z,65.92
2018-04-14T22:56:36.624Z,66.46
2018-04-14T22:59:05.699Z,66.27
2018-04-14T23:01:34.056Z,65.71
2018-04-14T23:04:02.789Z,65.40
2018-04-14T23:06:31.149Z,65.24
2018-04-14T23:09:00.629Z,65.08
2018-04-14T23:11:28.967Z,64.98
2018-04-14T23:13:57.731Z,65.03
2018-04-14T23:16:26.097Z,65.17
2018-04-14T23:18:55.193Z,65.39
2018-04-14T23:21:24.332Z,65.65
2018-04-14T23:23:53.461Z,66.23
2018-04-14T23:26:21.794Z,67.83
2018-04-14T23:28:50.141Z,68.88
2018-04-14T23:31:19.286Z,69.20
2018-04-14T23:33:47.612Z,69.24
2018-04-14T23:36:16.754Z,69.06
2018-04-14T23:38:45.121Z,70.72
2018-04-14T23:41:13.465Z,71.43
2018-04-14T23:43:42.569Z,70.93
2018-04-14T23:46:11.687Z,70.68
2018-04-14T23:48:40.025Z,71.64
2018-04-14T23:51:09.161Z,71.37
2018-04-14T23:53:37.498Z,70.78
2018-04-14T23:56:05.889Z,70.65
2018-04-14T23:58:34.993Z,70.30
